sensor_id;sensor_type;location;lat;lon;timestamp;P1;durP1;ratioP1;P2;durP2;ratioP2
20393;SDS011;10356;50.544;9.642;2024-02-04T00:00:43;2.33;;;1.80;;
20393;SDS011;10356;50.544;9.642;2024-02-04T00:03:09;1.80;;;1.67;;
20393;SDS011;10356;50.544;9.642;2024-02-04T00:05:37;1.90;;;1.73;;
20393;SDS011;10356;50.544;9.642;2024-02-04T00:08:04;1.97;;;1.77;;
20393;SDS011;10356;50.544;9.642;2024-02-04T00:10:30;2.10;;;1.90;;
20393;SDS011;10356;50.544;9.642;2024-02-04T00:12:57;2.10;;;1.90;;
20393;SDS011;10356;50.544;9.642;2024-02-04T00:15:24;1.83;;;1.73;;
20393;SDS011;10356;50.544;9.642;2024-02-04T00:17:51;2.63;;;2.00;;
20393;SDS011;10356;50.544;9.642;2024-02-04T00:20:17;1.77;;;1.63;;
20393;SDS011;10356;50.544;9.642;2024-02-04T00:22:45;2.23;;;2.00;;
20393;SDS011;10356;50.544;9.642;2024-02-04T00:25:12;2.07;;;1.87;;
20393;SDS011;10356;50.544;9.642;2024-02-04T00:27:40;1.70;;;1.60;;
20393;SDS011;10356;50.544;9.642;2024-02-04T00:30:07;1.87;;;1.67;;
20393;SDS011;10356;50.544;9.642;2024-02-04T00:32:34;1.83;;;1.63;;
20393;SDS011;10356;50.544;9.642;2024-02-04T00:35:00;2.13;;;1.60;;
20393;SDS011;10356;50.544;9.642;2024-02-04T00:37:27;2.57;;;1.80;;
20393;SDS011;10356;50.544;9.642;2024-02-04T00:39:55;2.10;;;1.70;;
20393;SDS011;10356;50.544;9.642;2024-02-04T00:42:22;1.83;;;1.73;;
20393;SDS011;10356;50.544;9.642;2024-02-04T00:44:48;3.53;;;1.80;;
20393;SDS011;10356;50.544;9.642;2024-02-04T00:47:14;1.90;;;1.80;;
20393;SDS011;10356;50.544;9.642;2024-02-04T00:49:41;1.70;;;1.60;;
20393;SDS011;10356;50.544;9.642;2024-02-04T00:52:07;2.27;;;2.07;;
20393;SDS011;10356;50.544;9.642;2024-02-04T00:54:34;2.53;;;1.70;;
20393;SDS011;10356;50.544;9.642;2024-02-04T00:57:02;2.67;;;1.80;;
20393;SDS011;10356;50.544;9.642;2024-02-04T00:59:28;1.73;;;1.60;;
20393;SDS011;10356;50.544;9.642;2024-02-04T01:01:55;1.70;;;1.60;;
20393;SDS011;10356;50.544;9.642;2024-02-04T01:04:22;2.10;;;1.90;;
20393;SDS011;10356;50.544;9.642;2024-02-04T01:06:49;1.50;;;1.40;;
20393;SDS011;10356;50.544;9.642;2024-02-04T01:09:15;2.07;;;1.87;;
20393;SDS011;10356;50.544;9.642;2024-02-04T01:11:42;1.70;;;1.60;;
20393;SDS011;10356;50.544;9.642;2024-02-04T01:14:09;2.10;;;1.70;;
20393;SDS011;10356;50.544;9.642;2024-02-04T01:16:36;1.67;;;1.57;;
20393;SDS011;10356;50.544;9.642;2024-02-04T01:19:02;1.50;;;1.40;;
20393;SDS011;10356;50.544;9.642;2024-02-04T01:21:29;2.17;;;1.40;;
20393;SDS011;10356;50.544;9.642;2024-02-04T01:23:55;2.03;;;1.30;;
20393;SDS011;10356;50.544;9.642;2024-02-04T01:26:22;1.60;;;1.50;;
20393;SDS011;10356;50.544;9.642;2024-02-04T01:28:49;2.07;;;1.97;;
20393;SDS011;10356;50.544;9.642;2024-02-04T01:31:17;3.10;;;1.63;;
20393;SDS011;10356;50.544;9.642;2024-02-04T01:33:43;1.73;;;1.63;;
20393;SDS011;10356;50.544;9.642;2024-02-04T01:36:10;1.60;;;1.50;;
20393;SDS011;10356;50.544;9.642;2024-02-04T01:38:36;1.73;;;1.60;;
20393;SDS011;10356;50.544;9.642;2024-02-04T01:41:03;2.33;;;2.13;;
20393;SDS011;10356;50.544;9.642;2024-02-04T01:43:29;3.53;;;2.10;;
20393;SDS011;10356;50.544;9.642;2024-02-04T01:45:56;2.37;;;1.87;;
20393;SDS011;10356;50.544;9.642;2024-02-04T01:48:24;2.97;;;2.47;;
20393;SDS011;10356;50.544;9.642;2024-02-04T01:50:52;2.83;;;2.00;;
20393;SDS011;10356;50.544;9.642;2024-02-04T01:53:21;3.60;;;2.20;;
20393;SDS011;10356;50.544;9.642;2024-02-04T01:55:49;1.97;;;1.87;;
20393;SDS011;10356;50.544;9.642;2024-02-04T01:58:15;2.10;;;1.90;;
20393;SDS011;10356;50.544;9.642;2024-02-04T02:00:43;1.83;;;1.73;;
20393;SDS011;10356;50.544;9.642;2024-02-04T02:03:11;1.60;;;1.50;;
20393;SDS011;10356;50.544;9.642;2024-02-04T02:05:40;1.63;;;1.53;;
20393;SDS011;10356;50.544;9.642;2024-02-04T02:08:07;1.30;;;1.20;;
20393;SDS011;10356;50.544;9.642;2024-02-04T02:10:34;2.60;;;1.47;;
20393;SDS011;10356;50.544;9.642;2024-02-04T02:13:04;2.80;;;1.70;;
20393;SDS011;10356;50.544;9.642;2024-02-04T02:15:36;1.50;;;1.40;;
20393;SDS011;10356;50.544;9.642;2024-02-04T02:18:10;1.50;;;1.30;;
20393;SDS011;10356;50.544;9.642;2024-02-04T02:20:42;1.73;;;1.30;;
20393;SDS011;10356;50.544;9.642;2024-02-04T02:23:22;4.17;;;3.87;;
20393;SDS011;10356;50.544;9.642;2024-02-04T02:25:57;2.60;;;2.40;;
20393;SDS011;10356;50.544;9.642;2024-02-04T02:28:25;2.80;;;2.50;;
20393;SDS011;10356;50.544;9.642;2024-02-04T02:30:51;1.97;;;1.67;;
20393;SDS011;10356;50.544;9.642;2024-02-04T02:33:18;3.20;;;2.33;;
20393;SDS011;10356;50.544;9.642;2024-02-04T02:35:45;2.43;;;2.20;;
20393;SDS011;10356;50.544;9.642;2024-02-04T02:38:20;3.50;;;3.20;;
20393;SDS011;10356;50.544;9.642;2024-02-04T02:40:51;2.10;;;1.90;;
20393;SDS011;10356;50.544;9.642;2024-02-04T02:43:22;1.80;;;1.50;;
20393;SDS011;10356;50.544;9.642;2024-02-04T02:45:49;2.07;;;1.97;;
20393;SDS011;10356;50.544;9.642;2024-02-04T02:48:16;1.97;;;1.80;;
20393;SDS011;10356;50.544;9.642;2024-02-04T02:50:43;2.20;;;1.77;;
20393;SDS011;10356;50.544;9.642;2024-02-04T02:53:10;2.97;;;1.80;;
20393;SDS011;10356;50.544;9.642;2024-02-04T02:55:37;1.57;;;1.47;;
20393;SDS011;10356;50.544;9.642;2024-02-04T02:58:03;2.77;;;1.97;;
20393;SDS011;10356;50.544;9.642;2024-02-04T03:00:31;1.80;;;1.70;;
20393;SDS011;10356;50.544;9.642;2024-02-04T03:02:57;2.10;;;1.70;;
20393;SDS011;10356;50.544;9.642;2024-02-04T03:05:24;1.70;;;1.60;;
20393;SDS011;10356;50.544;9.642;2024-02-04T03:07:50;2.03;;;1.80;;
20393;SDS011;10356;50.544;9.642;2024-02-04T03:10:17;2.60;;;2.03;;
20393;SDS011;10356;50.544;9.642;2024-02-04T03:12:43;4.23;;;2.70;;
20393;SDS011;10356;50.544;9.642;2024-02-04T03:15:10;6.67;;;2.40;;
20393;SDS011;10356;50.544;9.642;2024-02-04T03:17:38;3.83;;;2.40;;
20393;SDS011;10356;50.544;9.642;2024-02-04T03:20:04;3.27;;;2.17;;
20393;SDS011;10356;50.544;9.642;2024-02-04T03:22:31;4.43;;;3.00;;
20393;SDS011;10356;50.544;9.642;2024-02-04T03:24:58;1.33;;;1.20;;
20393;SDS011;10356;50.544;9.642;2024-02-04T03:27:25;1.37;;;1.27;;
20393;SDS011;10356;50.544;9.642;2024-02-04T03:29:52;1.57;;;1.47;;
20393;SDS011;10356;50.544;9.642;2024-02-04T03:32:18;1.00;;;0.90;;
20393;SDS011;10356;50.544;9.642;2024-02-04T03:34:46;0.77;;;0.77;;
20393;SDS011;10356;50.544;9.642;2024-02-04T03:37:13;1.07;;;0.80;;
20393;SDS011;10356;50.544;9.642;2024-02-04T03:39:39;1.10;;;1.00;;
20393;SDS011;10356;50.544;9.642;2024-02-04T03:42:05;1.07;;;0.90;;
20393;SDS011;10356;50.544;9.642;2024-02-04T03:44:32;0.70;;;0.70;;
20393;SDS011;10356;50.544;9.642;2024-02-04T03:46:58;1.07;;;0.97;;
20393;SDS011;10356;50.544;9.642;2024-02-04T03:49:28;0.97;;;0.80;;
20393;SDS011;10356;50.544;9.642;2024-02-04T03:51:55;1.37;;;1.00;;
20393;SDS011;10356;50.544;9.642;2024-02-04T03:54:22;0.83;;;0.80;;
20393;SDS011;10356;50.544;9.642;2024-02-04T03:56:49;0.53;;;0.53;;
20393;SDS011;10356;50.544;9.642;2024-02-04T03:59:15;0.50;;;0.50;;
20393;SDS011;10356;50.544;9.642;2024-02-04T04:01:46;0.73;;;0.60;;
20393;SDS011;10356;50.544;9.642;2024-02-04T04:04:13;0.50;;;0.50;;
20393;SDS011;10356;50.544;9.642;2024-02-04T04:06:40;0.40;;;0.40;;
20393;SDS011;10356;50.544;9.642;2024-02-04T04:09:08;0.40;;;0.30;;
20393;SDS011;10356;50.544;9.642;2024-02-04T04:11:34;0.50;;;0.40;;
20393;SDS011;10356;50.544;9.642;2024-02-04T04:14:01;0.30;;;0.30;;
20393;SDS011;10356;50.544;9.642;2024-02-04T04:16:27;1.00;;;0.20;;
20393;SDS011;10356;50.544;9.642;2024-02-04T04:18:54;0.30;;;0.30;;
20393;SDS011;10356;50.544;9.642;2024-02-04T04:21:20;0.40;;;0.20;;
20393;SDS011;10356;50.544;9.642;2024-02-04T04:23:47;0.27;;;0.20;;
20393;SDS011;10356;50.544;9.642;2024-02-04T04:26:15;0.60;;;0.23;;
20393;SDS011;10356;50.544;9.642;2024-02-04T04:28:41;0.20;;;0.20;;
20393;SDS011;10356;50.544;9.642;2024-02-04T04:31:08;1.43;;;0.30;;
20393;SDS011;10356;50.544;9.642;2024-02-04T04:33:35;0.30;;;0.30;;
20393;SDS011;10356;50.544;9.642;2024-02-04T04:36:02;0.20;;;0.20;;
20393;SDS011;10356;50.544;9.642;2024-02-04T04:38:28;0.30;;;0.30;;
20393;SDS011;10356;50.544;9.642;2024-02-04T04:40:55;0.23;;;0.20;;
20393;SDS011;10356;50.544;9.642;2024-02-04T04:43:22;0.50;;;0.30;;
20393;SDS011;10356;50.544;9.642;2024-02-04T04:45:49;0.30;;;0.30;;
20393;SDS011;10356;50.544;9.642;2024-02-04T04:48:15;0.20;;;0.20;;
20393;SDS011;10356;50.544;9.642;2024-02-04T04:50:42;0.33;;;0.30;;
20393;SDS011;10356;50.544;9.642;2024-02-04T04:53:08;0.20;;;0.20;;
20393;SDS011;10356;50.544;9.642;2024-02-04T04:55:35;0.30;;;0.30;;
20393;SDS011;10356;50.544;9.642;2024-02-04T04:58:01;0.20;;;0.20;;
20393;SDS011;10356;50.544;9.642;2024-02-04T05:00:29;0.10;;;0.10;;
20393;SDS011;10356;50.544;9.642;2024-02-04T05:02:56;0.20;;;0.20;;
20393;SDS011;10356;50.544;9.642;2024-02-04T05:05:22;0.20;;;0.20;;
20393;SDS011;10356;50.544;9.642;2024-02-04T05:07:49;0.20;;;0.20;;
20393;SDS011;10356;50.544;9.642;2024-02-04T05:10:15;0.30;;;0.30;;
20393;SDS011;10356;50.544;9.642;2024-02-04T05:12:41;0.70;;;0.30;;
20393;SDS011;10356;50.544;9.642;2024-02-04T05:15:08;0.30;;;0.30;;
20393;SDS011;10356;50.544;9.642;2024-02-04T05:17:36;0.23;;;0.23;;
20393;SDS011;10356;50.544;9.642;2024-02-04T05:20:03;0.20;;;0.20;;
20393;SDS011;10356;50.544;9.642;2024-02-04T05:22:32;0.20;;;0.17;;
20393;SDS011;10356;50.544;9.642;2024-02-04T05:24:59;0.33;;;0.20;;
20393;SDS011;10356;50.544;9.642;2024-02-04T05:27:26;0.20;;;0.20;;
20393;SDS011;10356;50.544;9.642;2024-02-04T05:29:52;0.20;;;0.20;;
20393;SDS011;10356;50.544;9.642;2024-02-04T05:32:18;0.43;;;0.30;;
20393;SDS011;10356;50.544;9.642;2024-02-04T05:34:46;0.20;;;0.20;;
20393;SDS011;10356;50.544;9.642;2024-02-04T05:37:13;0.40;;;0.20;;
20393;SDS011;10356;50.544;9.642;2024-02-04T05:39:39;0.20;;;0.20;;
20393;SDS011;10356;50.544;9.642;2024-02-04T05:42:06;0.20;;;0.20;;
20393;SDS011;10356;50.544;9.642;2024-02-04T05:44:32;0.30;;;0.30;;
20393;SDS011;10356;50.544;9.642;2024-02-04T05:46:59;0.27;;;0.20;;
20393;SDS011;10356;50.544;9.642;2024-02-04T05:49:25;2.27;;;0.30;;
20393;SDS011;10356;50.544;9.642;2024-02-04T05:51:53;0.60;;;0.30;;
20393;SDS011;10356;50.544;9.642;2024-02-04T05:54:19;1.33;;;0.23;;
20393;SDS011;10356;50.544;9.642;2024-02-04T05:56:46;0.20;;;0.20;;
20393;SDS011;10356;50.544;9.642;2024-02-04T05:59:12;1.40;;;0.20;;
20393;SDS011;10356;50.544;9.642;2024-02-04T06:01:40;0.30;;;0.30;;
20393;SDS011;10356;50.544;9.642;2024-02-04T06:04:07;1.40;;;0.20;;
20393;SDS011;10356;50.544;9.642;2024-02-04T06:06:34;0.27;;;0.27;;
20393;SDS011;10356;50.544;9.642;2024-02-04T06:09:02;0.83;;;0.30;;
20393;SDS011;10356;50.544;9.642;2024-02-04T06:11:28;1.13;;;0.33;;
20393;SDS011;10356;50.544;9.642;2024-02-04T06:13:55;0.40;;;0.40;;
20393;SDS011;10356;50.544;9.642;2024-02-04T06:16:21;0.33;;;0.27;;
20393;SDS011;10356;50.544;9.642;2024-02-04T06:18:48;0.27;;;0.23;;
20393;SDS011;10356;50.544;9.642;2024-02-04T06:21:14;0.50;;;0.23;;
20393;SDS011;10356;50.544;9.642;2024-02-04T06:23:41;0.40;;;0.40;;
20393;SDS011;10356;50.544;9.642;2024-02-04T06:26:08;0.87;;;0.40;;
20393;SDS011;10356;50.544;9.642;2024-02-04T06:28:35;0.40;;;0.40;;
20393;SDS011;10356;50.544;9.642;2024-02-04T06:31:01;0.30;;;0.30;;
20393;SDS011;10356;50.544;9.642;2024-02-04T06:33:28;3.03;;;0.50;;
20393;SDS011;10356;50.544;9.642;2024-02-04T06:35:54;0.40;;;0.27;;
20393;SDS011;10356;50.544;9.642;2024-02-04T06:38:21;2.37;;;0.40;;
20393;SDS011;10356;50.544;9.642;2024-02-04T06:40:47;0.30;;;0.30;;
20393;SDS011;10356;50.544;9.642;2024-02-04T06:43:15;0.40;;;0.40;;
20393;SDS011;10356;50.544;9.642;2024-02-04T06:45:41;0.30;;;0.30;;
20393;SDS011;10356;50.544;9.642;2024-02-04T06:48:08;0.60;;;0.50;;
20393;SDS011;10356;50.544;9.642;2024-02-04T06:50:35;0.33;;;0.33;;
20393;SDS011;10356;50.544;9.642;2024-02-04T06:53:01;0.30;;;0.20;;
20393;SDS011;10356;50.544;9.642;2024-02-04T06:55:28;0.30;;;0.30;;
20393;SDS011;10356;50.544;9.642;2024-02-04T06:57:54;0.33;;;0.20;;
20393;SDS011;10356;50.544;9.642;2024-02-04T07:00:22;0.50;;;0.50;;
20393;SDS011;10356;50.544;9.642;2024-02-04T07:02:49;0.73;;;0.37;;
20393;SDS011;10356;50.544;9.642;2024-02-04T07:05:15;1.60;;;0.50;;
20393;SDS011;10356;50.544;9.642;2024-02-04T07:07:42;0.60;;;0.60;;
20393;SDS011;10356;50.544;9.642;2024-02-04T07:10:09;0.27;;;0.27;;
20393;SDS011;10356;50.544;9.642;2024-02-04T07:12:35;1.67;;;0.50;;
20393;SDS011;10356;50.544;9.642;2024-02-04T07:15:02;0.90;;;0.50;;
20393;SDS011;10356;50.544;9.642;2024-02-04T07:17:30;0.50;;;0.50;;
20393;SDS011;10356;50.544;9.642;2024-02-04T07:19:56;0.80;;;0.50;;
20393;SDS011;10356;50.544;9.642;2024-02-04T07:22:23;0.70;;;0.60;;
20393;SDS011;10356;50.544;9.642;2024-02-04T07:24:50;0.90;;;0.80;;
20393;SDS011;10356;50.544;9.642;2024-02-04T07:27:17;2.10;;;0.73;;
20393;SDS011;10356;50.544;9.642;2024-02-04T07:29:43;0.83;;;0.70;;
20393;SDS011;10356;50.544;9.642;2024-02-04T07:32:12;0.50;;;0.50;;
20393;SDS011;10356;50.544;9.642;2024-02-04T07:34:39;1.50;;;0.60;;
20393;SDS011;10356;50.544;9.642;2024-02-04T07:37:06;0.63;;;0.63;;
20393;SDS011;10356;50.544;9.642;2024-02-04T07:39:32;0.87;;;0.60;;
20393;SDS011;10356;50.544;9.642;2024-02-04T07:41:59;0.63;;;0.63;;
20393;SDS011;10356;50.544;9.642;2024-02-04T07:44:26;1.30;;;0.60;;
20393;SDS011;10356;50.544;9.642;2024-02-04T07:46:53;1.00;;;0.70;;
20393;SDS011;10356;50.544;9.642;2024-02-04T07:49:19;0.80;;;0.80;;
20393;SDS011;10356;50.544;9.642;2024-02-04T07:51:47;0.67;;;0.67;;
20393;SDS011;10356;50.544;9.642;2024-02-04T07:54:13;0.77;;;0.60;;
20393;SDS011;10356;50.544;9.642;2024-02-04T07:56:40;0.43;;;0.43;;
20393;SDS011;10356;50.544;9.642;2024-02-04T07:59:06;1.17;;;0.40;;
20393;SDS011;10356;50.544;9.642;2024-02-04T08:01:33;0.30;;;0.30;;
20393;SDS011;10356;50.544;9.642;2024-02-04T08:03:59;0.70;;;0.40;;
20393;SDS011;10356;50.544;9.642;2024-02-04T08:06:27;0.77;;;0.40;;
20393;SDS011;10356;50.544;9.642;2024-02-04T08:08:55;0.20;;;0.20;;
20393;SDS011;10356;50.544;9.642;2024-02-04T08:11:21;0.50;;;0.40;;
20393;SDS011;10356;50.544;9.642;2024-02-04T08:13:48;0.30;;;0.30;;
20393;SDS011;10356;50.544;9.642;2024-02-04T08:16:14;0.80;;;0.50;;
20393;SDS011;10356;50.544;9.642;2024-02-04T08:18:41;0.40;;;0.40;;
20393;SDS011;10356;50.544;9.642;2024-02-04T08:21:07;0.33;;;0.33;;
20393;SDS011;10356;50.544;9.642;2024-02-04T08:23:34;0.50;;;0.50;;
20393;SDS011;10356;50.544;9.642;2024-02-04T08:26:02;0.40;;;0.40;;
20393;SDS011;10356;50.544;9.642;2024-02-04T08:28:28;0.47;;;0.47;;
20393;SDS011;10356;50.544;9.642;2024-02-04T08:30:55;0.30;;;0.30;;
20393;SDS011;10356;50.544;9.642;2024-02-04T08:33:21;0.80;;;0.30;;
20393;SDS011;10356;50.544;9.642;2024-02-04T08:35:48;1.20;;;0.93;;
20393;SDS011;10356;50.544;9.642;2024-02-04T08:38:14;0.47;;;0.40;;
20393;SDS011;10356;50.544;9.642;2024-02-04T08:40:41;0.40;;;0.40;;
20393;SDS011;10356;50.544;9.642;2024-02-04T08:43:09;0.40;;;0.40;;
20393;SDS011;10356;50.544;9.642;2024-02-04T08:45:35;0.50;;;0.50;;
20393;SDS011;10356;50.544;9.642;2024-02-04T08:48:02;2.00;;;1.90;;
20393;SDS011;10356;50.544;9.642;2024-02-04T08:50:29;0.77;;;0.77;;
20393;SDS011;10356;50.544;9.642;2024-02-04T08:52:55;2.83;;;1.10;;
20393;SDS011;10356;50.544;9.642;2024-02-04T08:55:22;1.37;;;0.40;;
20393;SDS011;10356;50.544;9.642;2024-02-04T08:57:48;0.20;;;0.20;;
20393;SDS011;10356;50.544;9.642;2024-02-04T09:00:17;1.30;;;0.23;;
20393;SDS011;10356;50.544;9.642;2024-02-04T09:02:44;0.43;;;0.40;;
20393;SDS011;10356;50.544;9.642;2024-02-04T09:05:11;0.30;;;0.27;;
20393;SDS011;10356;50.544;9.642;2024-02-04T09:07:38;0.20;;;0.20;;
20393;SDS011;10356;50.544;9.642;2024-02-04T09:10:05;0.60;;;0.40;;
20393;SDS011;10356;50.544;9.642;2024-02-04T09:12:32;0.40;;;0.40;;
20393;SDS011;10356;50.544;9.642;2024-02-04T09:14:58;0.25;;;0.17;;
20393;SDS011;10356;50.544;9.642;2024-02-04T09:17:26;0.30;;;0.30;;
20393;SDS011;10356;50.544;9.642;2024-02-04T09:19:53;0.10;;;0.10;;
20393;SDS011;10356;50.544;9.642;2024-02-04T09:22:22;0.20;;;0.20;;
20393;SDS011;10356;50.544;9.642;2024-02-04T09:24:48;0.20;;;0.20;;
20393;SDS011;10356;50.544;9.642;2024-02-04T09:27:15;1.20;;;0.30;;
20393;SDS011;10356;50.544;9.642;2024-02-04T09:29:41;0.17;;;0.17;;
20393;SDS011;10356;50.544;9.642;2024-02-04T09:32:08;1.43;;;0.60;;
20393;SDS011;10356;50.544;9.642;2024-02-04T09:34:35;0.47;;;0.30;;
20393;SDS011;10356;50.544;9.642;2024-02-04T09:37:02;0.50;;;0.50;;
20393;SDS011;10356;50.544;9.642;2024-02-04T09:39:29;0.73;;;0.50;;
20393;SDS011;10356;50.544;9.642;2024-02-04T09:41:55;0.67;;;0.30;;
20393;SDS011;10356;50.544;9.642;2024-02-04T09:44:22;2.10;;;1.80;;
20393;SDS011;10356;50.544;9.642;2024-02-04T09:46:49;0.37;;;0.33;;
20393;SDS011;10356;50.544;9.642;2024-02-04T09:49:17;0.90;;;0.60;;
20393;SDS011;10356;50.544;9.642;2024-02-04T09:51:45;0.10;;;0.10;;
20393;SDS011;10356;50.544;9.642;2024-02-04T09:54:11;0.30;;;0.30;;
20393;SDS011;10356;50.544;9.642;2024-02-04T09:56:40;1.00;;;0.73;;
20393;SDS011;10356;50.544;9.642;2024-02-04T09:59:07;0.70;;;0.60;;
20393;SDS011;10356;50.544;9.642;2024-02-04T10:01:34;1.33;;;1.23;;
20393;SDS011;10356;50.544;9.642;2024-02-04T10:04:01;0.27;;;0.27;;
20393;SDS011;10356;50.544;9.642;2024-02-04T10:06:28;0.90;;;0.70;;
20393;SDS011;10356;50.544;9.642;2024-02-04T10:08:56;0.93;;;0.83;;
20393;SDS011;10356;50.544;9.642;2024-02-04T10:11:22;2.30;;;2.00;;
20393;SDS011;10356;50.544;9.642;2024-02-04T10:13:49;2.83;;;0.87;;
20393;SDS011;10356;50.544;9.642;2024-02-04T10:16:16;1.03;;;0.60;;
20393;SDS011;10356;50.544;9.642;2024-02-04T10:18:43;0.33;;;0.30;;
20393;SDS011;10356;50.544;9.642;2024-02-04T10:21:19;2.03;;;0.90;;
20393;SDS011;10356;50.544;9.642;2024-02-04T10:23:47;0.30;;;0.20;;
20393;SDS011;10356;50.544;9.642;2024-02-04T10:26:15;0.37;;;0.30;;
20393;SDS011;10356;50.544;9.642;2024-02-04T10:28:41;0.47;;;0.30;;
20393;SDS011;10356;50.544;9.642;2024-02-04T10:31:08;0.20;;;0.20;;
20393;SDS011;10356;50.544;9.642;2024-02-04T10:33:35;0.30;;;0.17;;
20393;SDS011;10356;50.544;9.642;2024-02-04T10:36:02;0.60;;;0.17;;
20393;SDS011;10356;50.544;9.642;2024-02-04T10:38:29;0.13;;;0.13;;
20393;SDS011;10356;50.544;9.642;2024-02-04T10:40:56;0.13;;;0.10;;
20393;SDS011;10356;50.544;9.642;2024-02-04T10:43:27;0.17;;;0.17;;
20393;SDS011;10356;50.544;9.642;2024-02-04T10:45:57;0.10;;;0.10;;
20393;SDS011;10356;50.544;9.642;2024-02-04T10:48:27;0.20;;;0.10;;
20393;SDS011;10356;50.544;9.642;2024-02-04T10:50:55;0.10;;;0.10;;
20393;SDS011;10356;50.544;9.642;2024-02-04T10:53:24;0.30;;;0.30;;
20393;SDS011;10356;50.544;9.642;2024-02-04T10:55:51;0.30;;;0.30;;
20393;SDS011;10356;50.544;9.642;2024-02-04T10:58:23;0.10;;;0.10;;
20393;SDS011;10356;50.544;9.642;2024-02-04T11:00:53;1.07;;;0.10;;
20393;SDS011;10356;50.544;9.642;2024-02-04T11:03:21;0.20;;;0.10;;
20393;SDS011;10356;50.544;9.642;2024-02-04T11:05:52;0.30;;;0.20;;
20393;SDS011;10356;50.544;9.642;2024-02-04T11:08:19;0.10;;;0.10;;
20393;SDS011;10356;50.544;9.642;2024-02-04T11:10:46;0.20;;;0.13;;
20393;SDS011;10356;50.544;9.642;2024-02-04T11:13:12;0.10;;;0.10;;
20393;SDS011;10356;50.544;9.642;2024-02-04T11:15:41;0.20;;;0.20;;
20393;SDS011;10356;50.544;9.642;2024-02-04T11:18:24;0.20;;;0.20;;
20393;SDS011;10356;50.544;9.642;2024-02-04T11:21:14;0.20;;;0.20;;
20393;SDS011;10356;50.544;9.642;2024-02-04T11:23:58;0.73;;;0.20;;
20393;SDS011;10356;50.544;9.642;2024-02-04T11:26:35;0.40;;;0.30;;
20393;SDS011;10356;50.544;9.642;2024-02-04T11:29:05;0.50;;;0.40;;
20393;SDS011;10356;50.544;9.642;2024-02-04T11:31:32;0.10;;;0.10;;
20393;SDS011;10356;50.544;9.642;2024-02-04T11:34:00;0.20;;;0.20;;
20393;SDS011;10356;50.544;9.642;2024-02-04T11:36:27;3.07;;;1.80;;
20393;SDS011;10356;50.544;9.642;2024-02-04T11:38:53;1.80;;;1.10;;
20393;SDS011;10356;50.544;9.642;2024-02-04T11:41:23;8.37;;;6.37;;
20393;SDS011;10356;50.544;9.642;2024-02-04T11:43:52;7.70;;;5.90;;
20393;SDS011;10356;50.544;9.642;2024-02-04T11:46:20;9.57;;;7.27;;
20393;SDS011;10356;50.544;9.642;2024-02-04T11:48:51;0.53;;;0.53;;
20393;SDS011;10356;50.544;9.642;2024-02-04T11:51:21;5.10;;;4.13;;
20393;SDS011;10356;50.544;9.642;2024-02-04T11:53:48;2.00;;;1.90;;
20393;SDS011;10356;50.544;9.642;2024-02-04T11:56:15;4.93;;;4.10;;
20393;SDS011;10356;50.544;9.642;2024-02-04T11:58:41;4.80;;;4.40;;
20393;SDS011;10356;50.544;9.642;2024-02-04T12:01:09;4.27;;;3.87;;
20393;SDS011;10356;50.544;9.642;2024-02-04T12:03:36;2.30;;;2.10;;
20393;SDS011;10356;50.544;9.642;2024-02-04T12:06:03;2.50;;;2.13;;
20393;SDS011;10356;50.544;9.642;2024-02-04T12:08:32;7.65;;;5.57;;
20393;SDS011;10356;50.544;9.642;2024-02-04T12:10:59;18.90;;;13.60;;
20393;SDS011;10356;50.544;9.642;2024-02-04T12:13:28;23.38;;;15.90;;
20393;SDS011;10356;50.544;9.642;2024-02-04T12:15:54;34.00;;;22.83;;
20393;SDS011;10356;50.544;9.642;2024-02-04T12:18:21;18.57;;;13.00;;
20393;SDS011;10356;50.544;9.642;2024-02-04T12:20:48;10.27;;;9.20;;
20393;SDS011;10356;50.544;9.642;2024-02-04T12:23:15;0.50;;;0.50;;
20393;SDS011;10356;50.544;9.642;2024-02-04T12:25:44;2.03;;;1.93;;
20393;SDS011;10356;50.544;9.642;2024-02-04T12:28:11;0.93;;;0.70;;
20393;SDS011;10356;50.544;9.642;2024-02-04T12:30:40;0.25;;;0.25;;
20393;SDS011;10356;50.544;9.642;2024-02-04T12:33:06;1.87;;;0.70;;
20393;SDS011;10356;50.544;9.642;2024-02-04T12:35:33;0.30;;;0.30;;
20393;SDS011;10356;50.544;9.642;2024-02-04T12:38:00;0.37;;;0.37;;
20393;SDS011;10356;50.544;9.642;2024-02-04T12:40:28;0.70;;;0.70;;
20393;SDS011;10356;50.544;9.642;2024-02-04T12:42:57;1.42;;;0.25;;
20393;SDS011;10356;50.544;9.642;2024-02-04T12:45:25;3.10;;;2.80;;
20393;SDS011;10356;50.544;9.642;2024-02-04T12:47:52;1.03;;;0.93;;
20393;SDS011;10356;50.544;9.642;2024-02-04T12:50:20;5.10;;;3.13;;
20393;SDS011;10356;50.544;9.642;2024-02-04T12:52:47;1.17;;;0.97;;
20393;SDS011;10356;50.544;9.642;2024-02-04T12:55:22;1.80;;;1.37;;
20393;SDS011;10356;50.544;9.642;2024-02-04T12:57:49;5.10;;;4.40;;
20393;SDS011;10356;50.544;9.642;2024-02-04T13:00:18;0.77;;;0.70;;
20393;SDS011;10356;50.544;9.642;2024-02-04T13:02:48;0.63;;;0.63;;
20393;SDS011;10356;50.544;9.642;2024-02-04T13:05:24;2.57;;;0.50;;
20393;SDS011;10356;50.544;9.642;2024-02-04T13:07:53;0.40;;;0.40;;
20393;SDS011;10356;50.544;9.642;2024-02-04T13:10:21;1.90;;;0.50;;
20393;SDS011;10356;50.544;9.642;2024-02-04T13:12:57;0.30;;;0.30;;
20393;SDS011;10356;50.544;9.642;2024-02-04T13:15:26;0.30;;;0.30;;
20393;SDS011;10356;50.544;9.642;2024-02-04T13:17:53;0.60;;;0.30;;
20393;SDS011;10356;50.544;9.642;2024-02-04T13:20:19;0.57;;;0.20;;
20393;SDS011;10356;50.544;9.642;2024-02-04T13:22:46;0.50;;;0.40;;
20393;SDS011;10356;50.544;9.642;2024-02-04T13:25:12;0.63;;;0.40;;
20393;SDS011;10356;50.544;9.642;2024-02-04T13:27:39;0.30;;;0.30;;
20393;SDS011;10356;50.544;9.642;2024-02-04T13:30:07;0.32;;;0.32;;
20393;SDS011;10356;50.544;9.642;2024-02-04T13:32:38;0.40;;;0.30;;
20393;SDS011;10356;50.544;9.642;2024-02-04T13:35:05;0.50;;;0.50;;
20393;SDS011;10356;50.544;9.642;2024-02-04T13:37:33;1.10;;;0.30;;
20393;SDS011;10356;50.544;9.642;2024-02-04T13:40:01;0.30;;;0.30;;
20393;SDS011;10356;50.544;9.642;2024-02-04T13:42:28;0.20;;;0.20;;
20393;SDS011;10356;50.544;9.642;2024-02-04T13:44:55;0.20;;;0.20;;
20393;SDS011;10356;50.544;9.642;2024-02-04T13:47:21;1.07;;;0.20;;
20393;SDS011;10356;50.544;9.642;2024-02-04T13:49:49;0.10;;;0.10;;
20393;SDS011;10356;50.544;9.642;2024-02-04T13:52:15;0.40;;;0.20;;
20393;SDS011;10356;50.544;9.642;2024-02-04T13:54:42;0.30;;;0.20;;
20393;SDS011;10356;50.544;9.642;2024-02-04T13:57:08;0.47;;;0.30;;
20393;SDS011;10356;50.544;9.642;2024-02-04T13:59:36;0.97;;;0.90;;
20393;SDS011;10356;50.544;9.642;2024-02-04T14:02:02;7.00;;;6.17;;
20393;SDS011;10356;50.544;9.642;2024-02-04T14:04:30;22.95;;;16.92;;
20393;SDS011;10356;50.544;9.642;2024-02-04T14:06:58;32.63;;;24.33;;
20393;SDS011;10356;50.544;9.642;2024-02-04T14:09:24;11.93;;;10.17;;
20393;SDS011;10356;50.544;9.642;2024-02-04T14:11:51;5.07;;;4.60;;
20393;SDS011;10356;50.544;9.642;2024-02-04T14:14:19;6.60;;;6.03;;
20393;SDS011;10356;50.544;9.642;2024-02-04T14:16:46;5.97;;;4.13;;
20393;SDS011;10356;50.544;9.642;2024-02-04T14:19:12;10.97;;;9.93;;
20393;SDS011;10356;50.544;9.642;2024-02-04T14:21:39;2.80;;;2.60;;
20393;SDS011;10356;50.544;9.642;2024-02-04T14:24:08;7.47;;;3.03;;
20393;SDS011;10356;50.544;9.642;2024-02-04T14:26:35;2.00;;;1.90;;
20393;SDS011;10356;50.544;9.642;2024-02-04T14:29:01;0.90;;;0.50;;
20393;SDS011;10356;50.544;9.642;2024-02-04T14:31:28;0.33;;;0.33;;
20393;SDS011;10356;50.544;9.642;2024-02-04T14:33:54;0.37;;;0.37;;
20393;SDS011;10356;50.544;9.642;2024-02-04T14:36:21;0.20;;;0.20;;
20393;SDS011;10356;50.544;9.642;2024-02-04T14:38:47;0.20;;;0.20;;
20393;SDS011;10356;50.544;9.642;2024-02-04T14:41:15;1.17;;;0.30;;
20393;SDS011;10356;50.544;9.642;2024-02-04T14:43:42;0.70;;;0.40;;
20393;SDS011;10356;50.544;9.642;2024-02-04T14:46:08;0.30;;;0.30;;
20393;SDS011;10356;50.544;9.642;2024-02-04T14:48:35;2.17;;;0.97;;